METAR Data
IDs: Format: Raw Decoded Include TAF

Data at: 1351 UTC 26 Feb 2021

EPKT 261330Z 30011KT CAVOK 16/03 Q1023